createdAt,value
2023-04-28T00:18:08.785Z,4.05
2023-04-28T00:28:30.466Z,2.40
2023-04-28T00:40:01.995Z,3.15
2023-04-28T00:50:16.604Z,8.55
2023-04-28T01:12:09.487Z,4.27
2023-04-28T01:22:23.807Z,2.28
2023-04-28T01:32:36.130Z,2.55
2023-04-28T01:42:44.011Z,2.85
2023-04-28T01:52:52.771Z,2.08
2023-04-28T02:03:01.639Z,3.40
2023-04-28T02:13:30.817Z,2.55
2023-04-28T02:35:22.012Z,2.33
2023-04-28T02:59:06.528Z,1.65
2023-04-28T03:09:51.028Z,1.85
2023-04-28T03:54:06.731Z,7.90
2023-04-28T04:04:18.448Z,5.80
2023-04-28T04:14:28.762Z,8.65
2023-04-28T04:24:36.720Z,4.82
2023-04-28T04:34:53.307Z,4.45
2023-04-28T04:45:03.517Z,4.07
2023-04-28T04:55:13.870Z,4.18
2023-04-28T05:05:28.687Z,3.25
2023-04-28T05:16:03.061Z,3.53
2023-04-28T05:38:19.185Z,2.83
2023-04-28T05:48:29.255Z,2.13
2023-04-28T05:59:34.735Z,1.92
2023-04-28T06:09:46.187Z,1.30
2023-04-28T06:19:56.987Z,1.70
2023-04-28T06:30:06.311Z,1.55
2023-04-28T06:40:14.219Z,1.75
2023-04-28T06:50:32.135Z,1.20
2023-04-28T07:00:40.216Z,1.30
2023-04-28T07:10:50.208Z,1.20
2023-04-28T07:20:58.625Z,1.38
2023-04-28T07:31:08.382Z,0.80
2023-04-28T07:41:21.579Z,1.00
2023-04-28T07:51:30.830Z,1.10
2023-04-28T08:01:37.860Z,0.98
2023-04-28T08:11:47.029Z,0.90
2023-04-28T08:21:57.497Z,1.00
2023-04-28T08:32:07.562Z,1.10
2023-04-28T08:42:15.633Z,0.75
2023-04-28T08:52:24.623Z,0.70
2023-04-28T09:02:32.184Z,0.90
2023-04-28T09:12:50.840Z,0.70
2023-04-28T09:23:20.742Z,0.80
2023-04-28T09:33:32.981Z,0.70
2023-04-28T09:54:12.183Z,0.80
2023-04-28T10:04:22.011Z,1.00
2023-04-28T10:14:32.565Z,1.10
2023-04-28T10:24:58.820Z,0.90
2023-04-28T10:35:46.225Z,0.70
2023-04-28T10:46:18.073Z,1.00
2023-04-28T10:56:36.130Z,0.70
2023-04-28T11:06:49.505Z,0.88
2023-04-28T11:17:10.927Z,0.68
2023-04-28T11:27:47.657Z,0.85
2023-04-28T11:38:08.850Z,0.70
2023-04-28T11:48:26.701Z,0.82
2023-04-28T11:58:40.897Z,0.70
2023-04-28T12:08:56.849Z,0.70
2023-04-28T12:19:08.856Z,1.10
2023-04-28T12:29:42.291Z,0.80
2023-04-28T12:39:52.194Z,0.70
2023-04-28T12:50:04.845Z,0.80
2023-04-28T13:00:36.745Z,0.60
2023-04-28T13:10:46.824Z,0.70
2023-04-28T13:31:17.328Z,0.90
2023-04-28T13:41:24.549Z,1.20
2023-04-28T13:51:33.928Z,1.30
2023-04-28T14:01:41.383Z,1.17
2023-04-28T14:11:50.380Z,1.27
2023-04-28T14:21:57.777Z,2.03
2023-04-28T14:32:06.577Z,1.58
2023-04-28T14:42:13.833Z,1.80
2023-04-28T14:52:23.305Z,2.25
2023-04-28T15:03:38.429Z,4.82
2023-04-28T15:13:47.692Z,5.00
2023-04-28T15:23:58.930Z,8.27
2023-04-28T15:34:07.940Z,2.72
2023-04-28T15:44:15.331Z,2.20
2023-04-28T15:54:24.557Z,1.90
2023-04-28T16:04:54.111Z,2.45
2023-04-28T16:15:06.046Z,2.72
2023-04-28T16:25:14.110Z,4.25
2023-04-28T16:35:22.897Z,2.00
2023-04-28T16:45:30.421Z,1.50
2023-04-28T16:55:40.440Z,3.20
2023-04-28T17:05:48.371Z,1.88
2023-04-28T17:16:01.107Z,4.03
2023-04-28T17:26:08.700Z,3.72
2023-04-28T17:36:18.005Z,2.63
2023-04-28T17:46:25.366Z,2.95
2023-04-28T17:56:34.310Z,1.83
2023-04-28T18:06:41.956Z,2.30
2023-04-28T18:29:07.831Z,3.63
2023-04-28T18:39:16.421Z,3.42
2023-04-28T18:49:25.838Z,2.20
2023-04-28T18:59:41.855Z,2.15
2023-04-28T19:09:51.979Z,2.75
2023-04-28T19:20:15.634Z,2.13
2023-04-28T19:30:24.402Z,1.60
2023-04-28T19:40:31.472Z,2.80
2023-04-28T19:50:43.521Z,4.00
2023-04-28T20:01:18.546Z,4.30
2023-04-28T20:22:41.470Z,1.50
2023-04-28T20:32:54.403Z,1.98
2023-04-28T20:43:25.915Z,2.10
2023-04-28T20:53:34.726Z,3.38
2023-04-28T21:03:42.964Z,3.00
2023-04-28T21:13:53.040Z,1.63
2023-04-28T21:24:00.075Z,2.13
2023-04-28T21:34:08.840Z,1.83
2023-04-28T21:44:15.734Z,1.80
2023-04-28T21:54:24.283Z,1.80
2023-04-28T22:04:31.656Z,3.38
2023-04-28T22:14:41.540Z,2.70
2023-04-28T22:24:50.999Z,2.90
2023-04-28T22:34:59.586Z,2.30
2023-04-28T22:45:07.585Z,1.77
2023-04-28T22:55:16.867Z,2.10
2023-04-28T23:06:12.653Z,2.35
2023-04-28T23:16:24.866Z,1.55
2023-04-28T23:26:31.890Z,2.22
2023-04-28T23:36:40.667Z,2.72
2023-04-28T23:46:48.020Z,1.38
